Time;durP1;ratioP1;P1;durP2;ratioP2;P2;SDS_P1;SDS_P2;PMS_P1;PMS_P2;Temp;Humidity;BMP_temperature;BMP_pressure;BME280_temperature;BME280_humidity;BME280_pressure;Samples;Min_cycle;Max_cycle;Signal;HPM_P1;HPM_P2
2021/10/25 00:02:06;;;;;;;8.93;5.40;;;;;;;9.61;58.30;101888.75;4845495;29;123946;-62
2021/10/25 00:04:34;;;;;;;8.43;5.20;;;;;;;9.62;58.38;101885.19;4851161;29;122931;-62
2021/10/25 00:07:01;;;;;;;9.52;5.50;;;;;;;9.62;58.36;101885.19;4844703;29;114139;-62
2021/10/25 00:09:29;;;;;;;8.52;5.18;;;;;;;9.63;58.50;101881.66;4847485;29;114449;-62
2021/10/25 00:11:56;;;;;;;8.77;5.00;;;;;;;9.64;58.53;101873.66;4844212;29;124373;-62
2021/10/25 00:14:24;;;;;;;11.05;5.47;;;;;;;9.66;58.61;101876.25;4843611;29;123936;-62
2021/10/25 00:16:51;;;;;;;8.50;4.82;;;;;;;9.68;58.86;101874.44;4842634;29;114129;-62
2021/10/25 00:19:20;;;;;;;7.20;4.93;;;;;;;9.71;58.78;101874.38;4842093;29;113926;-62
2021/10/25 00:21:49;;;;;;;8.38;4.70;;;;;;;9.74;59.07;101866.38;4854130;28;123254;-62
2021/10/25 00:24:17;;;;;;;11.35;5.63;;;;;;;9.76;59.06;101872.50;4846354;29;123751;-62
2021/10/25 00:26:44;;;;;;;9.23;5.18;;;;;;;9.79;59.15;101867.09;4855730;29;113297;-62
2021/10/25 00:29:11;;;;;;;8.30;5.00;;;;;;;9.82;59.01;101866.19;4846220;29;114452;-62
2021/10/25 00:31:39;;;;;;;9.45;5.30;;;;;;;9.84;59.27;101865.22;4842593;29;123452;-62
2021/10/25 00:34:06;;;;;;;8.63;4.90;;;;;;;9.86;59.41;101858.13;4829398;29;122660;-62
2021/10/25 00:36:33;;;;;;;10.13;5.18;;;;;;;9.89;59.13;101858.03;4841388;29;114142;-63
2021/10/25 00:39:01;;;;;;;9.15;5.10;;;;;;;9.91;59.24;101861.50;4841754;29;114908;-62
2021/10/25 00:41:28;;;;;;;8.48;4.95;;;;;;;9.94;59.06;101861.44;4844604;29;124771;-62
2021/10/25 00:43:57;;;;;;;8.55;4.95;;;;;;;9.95;59.10;101851.72;4840173;29;124727;-62
2021/10/25 00:46:24;;;;;;;10.45;4.72;;;;;;;9.97;59.24;101854.34;4847042;29;114038;-62
2021/10/25 00:48:51;;;;;;;8.63;4.50;;;;;;;9.99;59.48;101857.81;4842961;29;113807;-62
2021/10/25 00:51:18;;;;;;;10.15;4.70;;;;;;;10.00;59.27;101859.53;4839062;29;124089;-62
2021/10/25 00:53:46;;;;;;;8.68;4.55;;;;;;;10.03;59.44;101854.16;4851896;29;123160;-62
2021/10/25 00:56:13;;;;;;;8.68;4.75;;;;;;;10.04;59.11;101861.19;4843192;29;114746;-62
2021/10/25 00:58:40;;;;;;;7.97;4.82;;;;;;;10.07;59.35;101850.53;4838159;29;112835;-62
2021/10/25 01:01:09;;;;;;;8.85;4.47;;;;;;;10.09;59.43;101856.63;4848934;29;124177;-62
2021/10/25 01:03:38;;;;;;;10.02;4.60;;;;;;;10.12;59.66;101859.22;4840028;29;123653;-62
2021/10/25 01:06:07;;;;;;;7.70;4.55;;;;;;;10.13;59.51;101855.63;4844951;29;114601;-62
2021/10/25 01:08:36;;;;;;;7.40;4.43;;;;;;;10.15;59.34;101859.13;4843298;29;114594;-62
2021/10/25 01:11:06;;;;;;;8.88;4.57;;;;;;;10.15;59.42;101853.81;4852122;29;123263;-62
2021/10/25 01:13:33;;;;;;;8.27;4.80;;;;;;;10.16;59.11;101855.56;4841920;29;124087;-62
2021/10/25 01:16:05;;;;;;;7.78;4.07;;;;;;;10.16;59.16;101844.97;4851606;29;114485;-62
2021/10/25 01:18:33;;;;;;;9.23;4.55;;;;;;;10.18;59.29;101853.75;4850965;29;113872;-62
2021/10/25 01:21:01;;;;;;;6.90;4.18;;;;;;;10.18;59.35;101845.81;4846729;29;123449;-62
2021/10/25 01:23:28;;;;;;;7.93;4.63;;;;;;;10.20;59.24;101851.06;4864989;28;123321;-62
2021/10/25 01:25:56;;;;;;;7.00;4.32;;;;;;;10.21;59.35;101848.38;4841024;29;114832;-62
2021/10/25 01:28:23;;;;;;;7.38;4.18;;;;;;;10.22;59.41;101843.94;4859449;28;114302;-62
2021/10/25 01:30:51;;;;;;;9.90;4.90;;;;;;;10.22;59.45;101839.50;4844070;29;123809;-62
2021/10/25 01:33:19;;;;;;;7.85;4.07;;;;;;;10.24;59.65;101835.03;4841251;29;124340;-62
2021/10/25 01:35:46;;;;;;;10.30;4.70;;;;;;;10.25;59.43;101834.16;4851761;29;113438;-62
2021/10/25 01:38:16;;;;;;;7.35;4.32;;;;;;;10.25;59.31;101828.84;4839393;29;113805;-62
2021/10/25 01:40:45;;;;;;;9.55;4.50;;;;;;;10.25;59.44;101828.84;4823051;29;123284;-63
2021/10/25 01:43:13;;;;;;;5.40;3.75;;;;;;;10.27;59.51;101827.03;4847185;28;123653;-62
2021/10/25 01:45:40;;;;;;;6.70;3.85;;;;;;;10.27;59.34;101826.16;4841671;29;113208;-62
2021/10/25 01:48:08;;;;;;;6.82;4.32;;;;;;;10.29;59.29;101824.34;4839685;29;113138;-62
2021/10/25 01:50:36;;;;;;;6.35;3.95;;;;;;;10.28;59.35;101823.47;4842754;28;122953;-62
2021/10/25 01:53:04;;;;;;;6.97;3.90;;;;;;;10.31;59.61;101828.69;4840202;29;123440;-62
2021/10/25 01:55:34;;;;;;;7.97;4.40;;;;;;;10.33;59.44;101826.88;4843271;29;113490;-62
2021/10/25 01:58:03;;;;;;;7.95;4.28;;;;;;;10.36;59.78;101830.34;4852184;29;113536;-62
2021/10/25 02:00:31;;;;;;;6.78;3.78;;;;;;;10.38;59.55;101824.13;4827042;29;123312;-62
2021/10/25 02:02:59;;;;;;;6.95;4.18;;;;;;;10.44;59.67;101823.06;4833119;29;123066;-62
2021/10/25 02:05:59;;;;;;;7.70;3.97;;;;;;;10.47;59.91;101820.31;4835937;29;114381;-63
2021/10/25 02:08:27;;;;;;;8.13;4.05;;;;;;;10.53;60.07;101828.09;4842055;29;114111;-61
2021/10/25 02:11:00;;;;;;;5.80;4.03;;;;;;;10.58;60.11;101820.88;4848694;29;124180;-61
2021/10/25 02:13:30;;;;;;;6.85;4.40;;;;;;;10.64;60.22;101815.41;4844532;28;122973;-61
2021/10/25 02:16:02;;;;;;;8.10;4.38;;;;;;;10.70;59.87;101809.94;4831515;29;113137;-61
2021/10/25 02:18:29;;;;;;;8.10;4.05;;;;;;;10.76;60.19;101814.16;4840703;29;113011;-61
2021/10/25 02:20:58;;;;;;;9.13;4.13;;;;;;;10.83;60.26;101814.84;4849348;29;123248;-61
2021/10/25 02:23:26;;;;;;;6.25;3.83;;;;;;;10.88;60.00;101813.78;4841047;29;123509;-61
2021/10/25 02:25:56;;;;;;;10.38;3.90;;;;;;;10.95;60.34;101809.16;4840871;29;114218;-61
2021/10/25 02:28:24;;;;;;;7.68;4.15;;;;;;;11.01;60.22;101808.97;4844524;29;115155;-62
2021/10/25 02:30:56;;;;;;;7.07;3.80;;;;;;;11.05;59.85;101802.66;4858706;28;123591;-61
2021/10/25 02:33:27;;;;;;;6.18;3.78;;;;;;;11.12;59.86;101799.81;4843430;28;122976;-60
2021/10/25 02:35:54;;;;;;;5.53;3.58;;;;;;;11.16;60.13;101796.16;4846991;29;114594;-60
2021/10/25 02:38:23;;;;;;;8.60;4.10;;;;;;;11.22;59.92;101796.81;4843108;29;113017;-61
2021/10/25 02:40:56;;;;;;;8.32;4.25;;;;;;;11.27;60.09;101794.03;4854683;29;123211;-61
2021/10/25 02:43:23;;;;;;;6.80;3.70;;;;;;;11.32;60.00;101792.09;4841460;29;124226;-63
2021/10/25 02:45:53;;;;;;;6.32;3.85;;;;;;;11.37;59.73;101795.44;4843494;29;113368;-61
2021/10/25 02:48:20;;;;;;;5.88;3.58;;;;;;;11.42;59.74;101798.81;4841870;29;113835;-61
2021/10/25 02:50:48;;;;;;;10.85;4.00;;;;;;;11.46;59.92;101795.13;4854862;29;123046;-61
2021/10/25 02:53:15;;;;;;;6.72;3.60;;;;;;;11.48;59.95;101793.31;4842932;29;123910;-61
2021/10/25 02:55:44;;;;;;;6.75;3.42;;;;;;;11.54;59.79;101792.22;4848899;29;113108;-61
2021/10/25 02:58:11;;;;;;;6.75;3.70;;;;;;;11.57;59.74;101792.13;4842855;29;114296;-61
2021/10/25 03:00:39;;;;;;;6.18;3.70;;;;;;;11.61;59.67;101783.16;4838583;29;124161;-61
2021/10/25 03:03:09;;;;;;;6.25;3.50;;;;;;;11.64;59.71;101782.16;4851476;29;124111;-61
2021/10/25 03:05:37;;;;;;;7.30;3.55;;;;;;;11.68;59.74;101783.81;4839914;29;115237;-61
2021/10/25 03:08:05;;;;;;;7.25;3.70;;;;;;;11.72;59.75;101780.13;4847328;29;113606;-61
2021/10/25 03:10:35;;;;;;;5.63;3.78;;;;;;;11.76;59.73;101773.78;4850708;28;123397;-61
2021/10/25 03:13:03;;;;;;;6.75;3.58;;;;;;;11.79;59.51;101776.34;4841988;29;123905;-61
2021/10/25 03:15:30;;;;;;;5.40;3.88;;;;;;;11.83;59.53;101782.41;4854644;29;114174;-61
2021/10/25 03:18:03;;;;;;;8.75;3.95;;;;;;;11.86;59.75;101766.38;4857397;28;114041;-61
2021/10/25 03:20:34;;;;;;;9.07;3.83;;;;;;;11.89;59.58;101771.56;4841025;28;123314;-63
2021/10/25 03:23:01;;;;;;;6.45;3.80;;;;;;;11.93;59.25;101769.72;4852915;29;123080;-63
2021/10/25 03:25:31;;;;;;;8.85;3.72;;;;;;;11.96;59.59;101769.59;4849136;29;114153;-61
2021/10/25 03:27:58;;;;;;;5.75;3.55;;;;;;;11.98;59.39;101767.75;4851203;29;112827;-61
2021/10/25 03:30:28;;;;;;;7.70;3.97;;;;;;;11.99;59.51;101766.84;4845409;29;123185;-62
2021/10/25 03:32:59;;;;;;;7.13;3.60;;;;;;;12.01;59.49;101764.97;4853114;29;123256;-62
2021/10/25 03:35:55;;;;;;;;;;;;;;;12.00;59.32;101765.94;4840071;29;113526;-62
2021/10/25 03:38:24;;;;;;;7.38;3.72;;;;;;;12.04;59.36;101764.88;4848591;28;113024;-62
2021/10/25 03:40:54;;;;;;;5.82;3.42;;;;;;;12.06;59.36;101763.88;4849749;29;123167;-62
2021/10/25 03:43:25;;;;;;;5.45;3.30;;;;;;;12.08;59.43;101761.19;4846101;29;123111;-62
2021/10/25 03:46:08;;;;;;;7.00;3.50;;;;;;;12.10;59.21;101753.16;4841972;29;113493;-62
2021/10/25 03:48:44;;;;;;;6.80;3.42;;;;;;;12.13;59.42;101764.56;4853958;29;113065;-62
2021/10/25 03:51:15;;;;;;;6.63;3.40;;;;;;;12.15;59.40;101757.38;4841674;29;123215;-62
2021/10/25 03:53:59;;;;;;;5.72;3.55;;;;;;;12.18;59.58;101762.56;4853028;28;123523;-62
2021/10/25 04:12:44;;;;;;;6.10;3.65;;;;;;;12.26;59.14;101765.81;4854032;28;122800;-62
2021/10/25 04:29:37;;;;;;;6.35;3.42;;;;;;;12.32;59.15;101759.41;4852951;29;113694;-62
2021/10/25 04:32:07;;;;;;;6.50;3.33;;;;;;;12.34;59.00;101762.00;4842445;29;114129;-62
2021/10/25 04:34:36;;;;;;;5.50;3.22;;;;;;;12.35;59.10;101747.78;4849937;29;123912;-62
2021/10/25 04:37:32;;;;;;;6.80;3.55;;;;;;;12.36;58.91;101754.84;4835113;29;124529;-62
2021/10/25 04:40:07;;;;;;;6.10;3.45;;;;;;;12.39;59.14;101760.03;4842564;29;113496;-62
2021/10/25 04:42:36;;;;;;;4.78;3.22;;;;;;;12.41;59.06;101755.53;4839831;29;113146;-62
2021/10/25 04:45:04;;;;;;;7.05;3.50;;;;;;;12.43;59.23;101748.34;4837470;29;123131;-62
2021/10/25 04:47:32;;;;;;;7.05;3.90;;;;;;;12.45;59.09;101749.16;4853519;29;123157;-62
2021/10/25 04:50:05;;;;;;;5.13;3.33;;;;;;;12.47;59.08;101747.34;4850466;29;113591;-62
2021/10/25 04:53:02;;;;;;;6.13;3.05;;;;;;;12.47;58.97;101752.66;4835466;29;114467;-62
2021/10/25 04:55:30;;;;;;;8.13;3.25;;;;;;;12.48;58.91;101743.75;4840752;29;124401;-62
2021/10/25 04:57:57;;;;;;;5.68;3.22;;;;;;;12.50;58.80;101747.22;4839538;28;122934;-62
2021/10/25 05:00:25;;;;;;;6.05;3.33;;;;;;;12.51;58.86;101738.31;4855321;29;114403;-62
2021/10/25 05:02:53;;;;;;;7.05;2.97;;;;;;;12.52;58.78;101745.34;4850100;29;114049;-62
2021/10/25 05:05:21;;;;;;;5.10;3.53;;;;;;;12.54;58.91;101743.50;4852117;29;123613;-62
2021/10/25 05:07:49;;;;;;;6.53;3.40;;;;;;;12.55;58.72;101745.25;4842294;29;124279;-62
2021/10/25 05:10:16;;;;;;;4.63;3.00;;;;;;;12.57;58.83;101745.19;4838685;29;113553;-62
2021/10/25 05:12:44;;;;;;;8.35;3.20;;;;;;;12.59;58.88;101736.22;4839727;29;114369;-62
2021/10/25 05:15:11;;;;;;;6.25;3.60;;;;;;;12.59;58.62;101736.22;4840158;29;124192;-62
2021/10/25 05:17:38;;;;;;;7.15;3.13;;;;;;;12.62;58.70;101735.22;4845072;29;123484;-62
2021/10/25 05:20:06;;;;;;;7.65;3.28;;;;;;;12.64;58.85;101723.63;4841337;29;113511;-62
2021/10/25 05:22:38;;;;;;;7.20;3.33;;;;;;;12.65;58.80;101724.47;4843066;28;113538;-62
2021/10/25 05:25:08;;;;;;;9.20;3.70;;;;;;;12.65;58.54;101722.69;4847900;28;123284;-62
2021/10/25 05:27:35;;;;;;;5.30;3.28;;;;;;;12.66;58.77;101727.09;4839452;29;123237;-62
2021/10/25 05:30:04;;;;;;;6.25;3.28;;;;;;;12.69;58.69;101719.91;4847268;28;113401;-62
2021/10/25 05:32:32;;;;;;;6.35;3.63;;;;;;;12.70;58.63;101726.97;4848607;29;113721;-62
2021/10/25 05:35:00;;;;;;;6.00;3.40;;;;;;;12.71;58.56;101728.69;4854421;29;122919;-62
2021/10/25 05:37:29;;;;;;;6.93;3.60;;;;;;;12.72;58.52;101725.13;4844384;29;123075;-62
2021/10/25 05:39:57;;;;;;;6.47;3.47;;;;;;;12.71;58.60;101728.69;4847299;28;113339;-62
2021/10/25 05:42:32;;;;;;;6.03;3.10;;;;;;;12.73;58.61;101718.84;4841918;29;116476;-62
2021/10/25 05:44:59;;;;;;;7.32;3.60;;;;;;;12.73;58.46;101732.16;4842405;29;123193;-62
2021/10/25 05:47:27;;;;;;;8.10;3.80;;;;;;;12.72;58.42;101731.28;4850827;28;123631;-62
2021/10/25 05:49:54;;;;;;;5.43;3.40;;;;;;;12.73;58.41;101724.19;4850032;28;114802;-62
2021/10/25 05:52:21;;;;;;;6.80;3.63;;;;;;;12.72;58.64;101723.31;4841507;29;115768;-62
2021/10/25 05:54:49;;;;;;;6.78;3.00;;;;;;;12.73;58.56;101726.84;4853339;29;123319;-62
2021/10/25 05:57:17;;;;;;;7.60;3.15;;;;;;;12.73;58.53;101722.38;4854511;29;123392;-63
2021/10/25 05:59:46;;;;;;;6.45;3.42;;;;;;;12.75;58.45;101725.88;4854716;29;113546;-63
2021/10/25 06:04:59;;;;;;;5.68;3.50;;;;;;;12.76;58.39;101721.41;4854311;29;123275;-63
2021/10/25 06:07:28;;;;;;;7.60;3.60;;;;;;;12.77;58.43;101723.13;4845112;29;123674;-63
2021/10/25 06:09:56;;;;;;;6.55;3.70;;;;;;;12.77;58.36;101725.78;4845170;29;114340;-62
2021/10/25 06:12:38;;;;;;;5.70;3.50;;;;;;;12.77;58.40;101720.47;4843187;29;113427;-62
2021/10/25 06:15:30;;;;;;;5.57;3.20;;;;;;;12.76;58.40;101711.63;4848756;29;123560;-62
2021/10/25 06:17:58;;;;;;;5.72;3.13;;;;;;;12.77;58.37;101717.81;4843752;29;123951;-62
2021/10/25 06:20:28;;;;;;;7.47;3.65;;;;;;;12.76;58.30;101722.25;4854648;29;113491;-62
2021/10/25 06:22:57;;;;;;;6.45;3.58;;;;;;;12.77;58.50;101717.81;4851321;29;113068;-62
2021/10/25 06:25:27;;;;;;;8.35;3.45;;;;;;;12.78;58.23;101722.22;4847741;28;123948;-62
2021/10/25 06:28:16;;;;;;;5.65;3.35;;;;;;;12.78;58.35;101719.56;4840603;28;123263;-62
2021/10/25 06:30:58;;;;;;;4.68;3.10;;;;;;;12.78;58.16;101724.88;4844090;29;113182;-62
2021/10/25 06:33:45;;;;;;;7.60;3.35;;;;;;;12.79;58.30;101721.25;4858827;28;113094;-62
2021/10/25 06:36:29;;;;;;;6.10;3.22;;;;;;;12.79;58.25;101727.47;4852884;29;125042;-62
2021/10/25 06:39:21;;;;;;;5.75;3.38;;;;;;;12.81;58.49;101724.75;4840472;29;123045;-62
2021/10/25 06:41:51;;;;;;;5.65;3.20;;;;;;;12.81;58.26;101716.78;4857822;28;114575;-62
2021/10/25 06:44:24;;;;;;;7.50;3.53;;;;;;;12.81;58.14;101722.09;4856012;28;114019;-63
2021/10/25 06:47:08;;;;;;;8.77;3.20;;;;;;;12.83;58.49;101733.53;4838367;29;124248;-62
2021/10/25 06:49:36;;;;;;;5.65;3.03;;;;;;;12.85;58.23;101723.69;4839303;28;123734;-62
2021/10/25 06:52:03;;;;;;;5.20;3.15;;;;;;;12.87;58.41;101727.16;4845616;29;114139;-62
2021/10/25 06:54:31;;;;;;;4.55;3.20;;;;;;;12.88;58.31;101722.69;4853120;29;113333;-62
2021/10/25 06:56:59;;;;;;;4.78;3.10;;;;;;;12.91;58.26;101726.09;4839858;29;123440;-62
2021/10/25 06:59:26;;;;;;;7.43;3.28;;;;;;;12.92;58.26;101725.19;4851355;28;122969;-62
2021/10/25 07:01:54;;;;;;;7.65;3.40;;;;;;;12.95;58.42;101725.03;4835974;29;113361;-62
2021/10/25 07:04:24;;;;;;;6.95;3.17;;;;;;;12.98;58.31;101727.59;4852315;29;113110;-62
2021/10/25 07:06:53;;;;;;;5.75;3.20;;;;;;;13.01;58.26;101737.22;4857927;28;123467;-62
2021/10/25 07:09:22;;;;;;;6.00;3.30;;;;;;;13.04;58.12;101743.28;4846215;29;123609;-62
2021/10/25 07:11:50;;;;;;;5.30;3.20;;;;;;;13.05;58.13;101737.06;4843363;29;113664;-62
2021/10/25 07:14:25;;;;;;;7.25;3.78;;;;;;;13.08;58.11;101748.50;4858428;28;113509;-62
2021/10/25 07:20:01;;;;;;;9.20;3.50;;;;;;;13.11;58.01;101743.03;4832589;29;122816;-62
2021/10/25 08:05:18;;;;;;;7.18;2.70;;;;;;;13.55;58.15;101749.19;4857096;28;123505;-62
2021/10/25 08:11:02;;;;;;;7.60;3.03;;;;;;;13.72;58.07;101751.09;4849966;29;113258;-62
2021/10/25 08:13:43;;;;;;;6.38;2.80;;;;;;;13.79;57.97;101741.06;4855314;28;123103;-62
2021/10/25 08:16:20;;;;;;;5.45;3.17;;;;;;;13.86;57.66;101741.66;4864233;28;123031;-61
2021/10/25 08:21:21;;;;;;;5.60;3.53;;;;;;;14.01;57.78;101756.94;4852770;29;113289;-62
2021/10/25 08:23:51;;;;;;;5.30;3.10;;;;;;;14.06;57.62;101760.25;4853062;28;123194;-62
2021/10/25 08:26:42;;;;;;;8.93;3.28;;;;;;;14.12;57.56;101754.66;4845578;28;124620;-62
2021/10/25 08:29:09;;;;;;;5.05;3.30;;;;;;;14.17;57.52;101752.66;4866694;28;114881;-62
2021/10/25 08:31:38;;;;;;;5.07;3.05;;;;;;;14.19;57.46;101750.78;4840725;28;114084;-61
2021/10/25 08:40:00;;;;;;;5.88;3.13;;;;;;;14.33;57.53;101751.94;4841001;29;113112;-61
2021/10/25 08:42:35;;;;;;;5.43;3.00;;;;;;;14.37;57.17;101748.19;4834166;29;116514;-61
2021/10/25 08:45:13;;;;;;;7.88;3.55;;;;;;;14.38;57.20;101755.28;4852991;28;123203;-61
2021/10/25 08:47:49;;;;;;;6.30;3.07;;;;;;;14.39;57.26;101746.31;4852678;29;123064;-61
2021/10/25 08:50:20;;;;;;;5.53;3.42;;;;;;;14.41;57.17;101747.13;4849078;29;113882;-61
2021/10/25 08:52:49;;;;;;;6.90;3.40;;;;;;;14.43;57.15;101752.38;4854647;28;114665;-61
2021/10/25 08:55:19;;;;;;;6.32;2.90;;;;;;;14.44;57.12;101748.78;4853772;28;123662;-61
2021/10/25 08:57:48;;;;;;;5.78;3.17;;;;;;;14.44;56.99;101744.31;4854552;28;123027;-61
2021/10/25 09:00:21;;;;;;;5.38;3.03;;;;;;;14.46;57.00;101742.44;4856875;29;113600;-61
2021/10/25 09:03:08;;;;;;;5.75;3.10;;;;;;;14.44;56.80;101748.78;4856278;29;114739;-61
2021/10/25 09:05:40;;;;;;;7.40;3.30;;;;;;;14.44;56.99;101749.66;4854952;29;123241;-61
2021/10/25 09:08:10;;;;;;;6.63;3.08;;;;;;;14.44;56.88;101749.66;4855406;28;122884;-61
2021/10/25 09:10:43;;;;;;;5.78;3.40;;;;;;;14.46;57.08;101755.75;4852941;29;116910;-61
2021/10/25 09:13:18;;;;;;;5.07;3.00;;;;;;;14.47;57.04;101746.84;4852650;29;113219;-61
2021/10/25 09:15:53;;;;;;;7.35;3.40;;;;;;;14.49;56.91;101744.97;4855900;29;123198;-61
2021/10/25 09:18:55;;;;;;;5.43;3.40;;;;;;;14.49;56.92;101742.31;4813528;29;124452;-60
2021/10/25 09:21:33;;;;;;;5.30;2.95;;;;;;;14.51;57.09;101740.44;4845497;29;114170;-61
2021/10/25 09:24:04;;;;;;;6.72;2.95;;;;;;;14.55;56.99;101746.47;4846817;29;114093;-61
2021/10/25 09:26:34;;;;;;;5.22;2.72;;;;;;;14.57;57.10;101745.50;4855843;29;123206;-61
2021/10/25 09:29:03;;;;;;;6.82;3.20;;;;;;;14.59;57.10;101742.75;4855928;29;122923;-61
2021/10/25 09:31:34;;;;;;;6.78;3.28;;;;;;;14.62;56.88;101737.28;4856104;29;113949;-61
2021/10/25 09:34:08;;;;;;;4.63;2.97;;;;;;;14.64;57.07;101734.56;4856670;28;113559;-61
2021/10/25 09:37:11;;;;;;;5.05;3.08;;;;;;;14.66;57.13;101724.69;4845293;28;124610;-61
2021/10/25 09:50:46;;;;;;;6.68;3.20;;;;;;;14.81;57.08;101718.59;4856033;28;123546;-61
2021/10/25 09:53:14;;;;;;;7.00;3.15;;;;;;;14.85;57.26;101732.66;4855167;29;113623;-61
2021/10/25 09:55:45;;;;;;;5.47;3.35;;;;;;;14.88;57.16;101725.38;4849984;29;113258;-61
2021/10/25 09:58:18;;;;;;;4.65;3.00;;;;;;;14.92;57.10;101729.63;4852481;28;123191;-61
2021/10/25 10:00:50;;;;;;;6.10;3.40;;;;;;;14.96;57.26;101720.50;4849782;29;126582;-60
2021/10/25 10:03:19;;;;;;;5.45;3.22;;;;;;;14.99;57.22;101725.72;4852834;28;113330;-61
2021/10/25 10:06:01;;;;;;;6.05;2.90;;;;;;;15.02;57.19;101729.16;4853568;29;112963;-60
2021/10/25 10:08:34;;;;;;;6.05;3.00;;;;;;;15.04;57.26;101712.13;4855644;28;123203;-60
2021/10/25 10:11:12;;;;;;;4.90;3.00;;;;;;;15.08;57.15;101712.84;4855062;29;126556;-60
2021/10/25 10:13:42;;;;;;;5.80;3.00;;;;;;;15.12;57.29;101725.09;4845901;28;114600;-60
2021/10/25 10:16:17;;;;;;;5.68;2.97;;;;;;;15.16;57.31;101721.31;4844170;29;114513;-60
2021/10/25 10:18:54;;;;;;;4.38;3.05;;;;;;;15.21;57.20;101723.75;4850976;29;124953;-60
2021/10/25 10:21:40;;;;;;;5.07;3.08;;;;;;;15.27;57.28;101716.28;4839722;29;123388;-60
2021/10/25 10:24:13;;;;;;;7.95;3.60;;;;;;;15.31;57.33;101719.69;4841235;28;116254;-61
2021/10/25 10:26:52;;;;;;;6.03;3.40;;;;;;;15.35;57.30;101714.13;4852068;28;113086;-60
2021/10/25 10:29:21;;;;;;;4.75;3.10;;;;;;;15.41;57.22;101717.41;4852092;29;123260;-60
2021/10/25 10:32:15;;;;;;;5.10;2.88;;;;;;;15.44;57.12;101719.91;4836515;29;123085;-60
2021/10/25 10:35:09;;;;;;;5.57;3.30;;;;;;;15.47;57.07;101717.09;4831427;28;114894;-60
2021/10/25 10:38:09;;;;;;;5.30;3.20;;;;;;;15.49;56.87;101717.88;4835283;29;114577;-60
2021/10/25 10:40:51;;;;;;;7.68;3.45;;;;;;;15.52;57.03;101717.69;4854929;28;123690;-60
2021/10/25 10:43:58;;;;;;;9.15;3.50;;;;;;;15.54;56.99;101731.88;4844077;29;124051;-60
2021/10/25 10:46:26;;;;;;;6.85;3.55;;;;;;;15.55;56.97;101733.56;4844258;29;113200;-60
2021/10/25 10:48:56;;;;;;;5.15;3.20;;;;;;;15.56;56.88;101724.63;4846688;29;113930;-62
2021/10/25 10:51:29;;;;;;;5.78;2.88;;;;;;;15.56;56.72;101721.97;4842237;29;123278;-62
2021/10/25 10:54:19;;;;;;;5.20;2.92;;;;;;;15.55;56.83;101722.91;4844337;28;124652;-62
2021/10/25 10:57:04;;;;;;;6.18;3.35;;;;;;;15.55;56.92;101723.75;4845506;29;114463;-62
2021/10/25 10:59:36;;;;;;;6.05;3.10;;;;;;;15.57;56.91;101715.66;4852396;29;114160;-62
2021/10/25 11:02:04;;;;;;;5.50;3.28;;;;;;;15.59;56.99;101724.47;4845831;29;124671;-61
2021/10/25 11:04:33;;;;;;;4.95;2.90;;;;;;;15.61;57.00;101716.38;4841447;29;123873;-65
2021/10/25 11:07:03;;;;;;;6.05;3.42;;;;;;;15.64;57.04;101717.06;4845085;29;114984;-62
2021/10/25 11:09:31;;;;;;;6.30;3.22;;;;;;;15.69;56.99;101709.69;4845601;29;115623;-62
2021/10/25 11:12:12;;;;;;;4.38;2.72;;;;;;;15.71;56.85;101713.16;4843870;29;124432;-62
2021/10/25 11:14:40;;;;;;;4.60;2.90;;;;;;;15.76;56.95;101721.81;4855144;29;124542;-61
2021/10/25 11:17:26;;;;;;;6.30;3.20;;;;;;;15.79;56.91;101714.59;4852643;29;115026;-61
2021/10/25 11:19:56;;;;;;;5.93;3.05;;;;;;;15.85;56.92;101708.91;4854245;29;113827;-62
2021/10/25 11:22:29;;;;;;;3.97;2.70;;;;;;;15.91;56.98;101711.25;4854029;29;124253;-61
2021/10/25 11:24:57;;;;;;;4.43;2.80;;;;;;;15.98;56.86;101714.47;4865887;23;124690;-71
2021/10/25 11:27:35;;;;;;;7.82;2.90;;;;;;;16.04;56.86;101712.31;4874867;28;114372;-72
2021/10/25 11:30:11;;;;;;;4.40;2.70;;;;;;;16.09;56.85;101707.59;4857358;28;114156;-73
2021/10/25 11:32:41;;;;;;;5.22;2.90;;;;;;;16.14;56.47;101705.53;4869389;28;125177;-72
2021/10/25 11:35:12;;;;;;;5.97;2.78;;;;;;;16.18;56.64;101705.34;4869505;28;123821;-71
2021/10/25 11:37:48;;;;;;;5.00;2.60;;;;;;;16.20;56.41;101700.78;4842549;28;113132;-73
2021/10/25 11:40:22;;;;;;;6.53;2.78;;;;;;;16.24;56.26;101699.69;4865122;28;113960;-71
2021/10/25 11:42:49;;;;;;;6.43;2.80;;;;;;;16.26;56.35;101698.66;4853365;28;123967;-72
2021/10/25 11:45:23;;;;;;;4.63;2.50;;;;;;;16.32;56.24;101697.44;4864837;28;123854;-71
2021/10/25 11:47:52;;;;;;;4.13;2.67;;;;;;;16.35;56.13;101694.59;4859203;28;112549;-72
2021/10/25 11:50:29;;;;;;;5.38;2.90;;;;;;;16.37;56.03;101690.03;4857668;28;112777;-71
2021/10/25 11:53:06;;;;;;;4.90;2.85;;;;;;;16.41;56.04;101686.25;4862065;28;124156;-71
2021/10/25 11:55:36;;;;;;;5.82;2.75;;;;;;;16.46;56.07;101686.84;4857968;28;122886;-71
2021/10/25 11:58:08;;;;;;;5.82;3.00;;;;;;;16.53;56.18;101680.19;4850643;28;115496;-72
2021/10/25 12:00:43;;;;;;;4.25;2.60;;;;;;;16.60;56.14;101679.84;4856932;28;115121;-72
2021/10/25 12:03:31;;;;;;;4.55;2.88;;;;;;;16.69;56.02;101679.34;4849742;28;123057;-72
2021/10/25 12:06:00;;;;;;;4.97;2.80;;;;;;;16.76;56.11;101675.31;4851100;28;125298;-72
2021/10/25 12:08:27;;;;;;;4.45;2.55;;;;;;;16.82;55.95;101661.66;4867112;28;114228;-72
2021/10/25 12:10:57;;;;;;;6.07;3.05;;;;;;;16.88;55.74;101658.59;4871940;28;112777;-72
2021/10/25 12:13:25;;;;;;;5.28;2.70;;;;;;;16.95;55.86;101668.94;4860615;28;123790;-72
2021/10/25 12:16:02;;;;;;;5.07;2.88;;;;;;;17.01;55.67;101669.47;4863656;28;123802;-71
2021/10/25 12:18:30;;;;;;;5.70;3.05;;;;;;;17.09;55.65;101660.97;4846398;28;114309;-72
2021/10/25 12:21:07;;;;;;;6.18;2.90;;;;;;;17.13;55.55;101651.81;4863243;28;96978;-72
2021/10/25 12:23:46;;;;;;;4.05;2.67;;;;;;;17.20;55.50;101653.16;4851973;29;123879;-72
2021/10/25 12:26:17;;;;;;;4.80;2.60;;;;;;;17.25;55.40;101651.06;4844953;28;123932;-72
2021/10/25 12:28:44;;;;;;;6.68;2.70;;;;;;;17.31;55.40;101650.69;4840904;28;113600;-72
2021/10/25 12:31:15;;;;;;;5.47;3.10;;;;;;;17.37;55.07;101643.25;4860230;28;114394;-72
2021/10/25 12:33:45;;;;;;;4.93;2.90;;;;;;;17.43;55.16;101638.38;4858422;28;123727;-71
2021/10/25 12:36:21;;;;;;;5.15;3.03;;;;;;;17.48;55.18;101647.00;4844727;29;124255;-71
2021/10/25 12:38:54;;;;;;;6.05;2.83;;;;;;;17.51;55.15;101654.81;4838247;28;114053;-71
2021/10/25 12:41:22;;;;;;;3.67;2.75;;;;;;;17.56;54.81;101659.91;4844914;28;114419;-71
2021/10/25 12:43:55;;;;;;;4.65;2.72;;;;;;;17.62;55.06;101651.50;4856577;28;124399;-71
2021/10/25 12:46:32;;;;;;;4.97;2.50;;;;;;;17.67;55.09;101652.06;4852193;28;124639;-71
2021/10/25 12:48:59;;;;;;;4.55;2.65;;;;;;;17.75;55.08;101648.06;4836266;28;115022;-71
2021/10/25 12:52:01;;;;;;;5.88;3.05;;;;;;;17.81;54.99;101642.31;4827058;29;114010;-71
2021/10/25 12:54:36;;;;;;;3.83;2.85;;;;;;;17.89;54.98;101640.03;4855522;29;123810;-72
2021/10/25 12:57:25;;;;;;;4.65;2.60;;;;;;;17.96;54.84;101636.00;4845914;28;123963;-71
2021/10/25 13:00:10;;;;;;;5.82;2.60;;;;;;;18.02;54.68;101630.25;4840894;28;114272;-71
2021/10/25 13:02:49;;;;;;;4.53;2.70;;;;;;;18.08;54.73;101635.25;4854292;28;113860;-71
2021/10/25 13:05:22;;;;;;;4.60;2.60;;;;;;;18.16;54.85;101636.53;4852997;28;123879;-71
2021/10/25 13:07:54;;;;;;;4.07;2.50;;;;;;;18.25;54.84;101630.59;4853260;29;123798;-71
2021/10/25 13:10:34;;;;;;;5.35;2.85;;;;;;;18.33;54.57;101628.28;4843610;28;114123;-71
2021/10/25 13:13:04;;;;;;;4.25;2.47;;;;;;;18.38;54.29;101625.28;4856077;28;113978;-70
2021/10/25 13:15:31;;;;;;;5.03;2.63;;;;;;;18.41;54.34;101625.94;4855813;28;124847;-71
2021/10/25 13:18:00;;;;;;;3.50;2.50;;;;;;;18.44;53.94;101631.13;4861349;28;124231;-71
2021/10/25 13:20:33;;;;;;;3.78;2.40;;;;;;;18.49;54.21;101628.97;4856775;28;113083;-72
2021/10/25 13:23:03;;;;;;;5.03;2.70;;;;;;;18.53;53.94;101624.28;4855539;28;113669;-71